Welcome to La Porte Aviation Services!

An aviation adventure awaits

Current Weather Conditions

Available data for KPPO from the past 2 hours
LA PORTE, IN
Metar
KPPO 161735Z AUTO 00000KT 10SM SCT011 OVC055 25/21 A2997 RMK AO2 T02460214

17:35 UTC

Wind: 0° 0kt

Visibility: 10 SM

Sky: SCT 1100 ft

Temp: 25 deg C / 77 deg F

Dewpoint: 21 deg C / 69.8 deg F

Pressure: 29.97 inHg

Pireps (11)
FWA UA /OV FWA/TM 1712/FL016/TP PRM1/SK BKN/RM DURC
SBN UA /OV GIJ/TM 1708/FL150/TP B737/SK TOP150
ORD UA /OV DPA180008/TM 1650/FL050/TP BE55/SK BKN032-TOP050
ORD UA /OV ORD270030/TM 1645/FL110/TP B752/SK OVC-TOP053
ORD UA /OV ORD180005/TM 1627/FL030/TP E75L/SK BKN030-TOP060
ORD UA /OV ORD360010/TM 1620/FL150/TP A320/SK BKN TOP050 CLR ABV
FWA UA /OV FWA/TM 1614/FL016/TP CRJ2/SK 016 OVC
MDW UA /OV MDW228005/TM 1610/FL020/TP B738/SK OVC014/WX FV05SM
ORD UA /OV ORD135010/TM 1606/FL070/TP B738/TB LGT CHOP FL050/RM TOPS FL070
ORD UA /OV ORD/TM 1603/FL025/TP B772/SK BKN025/RM DURGD ON FINAL RUNWAY 10C
ORD UA /OV EON180020/TM 1552/FL180/TP CRJ2/TB LGT CHOP/RM STARTED AT 180 IN CLIMB

Connect with us on Facebook!

Facebook By Weblizar Powered By Weblizar